Accueil
METAR-TAF:

METAR-TAF

Aéroports :

Aéroport de Milan Malpensa

Milan, Italie

latitude: 45-37N, longitude: 008-44E, altitude: 234 m

Observation

Le bulletin a été fait il y a 24 minutes, à 02:20 UTC
Vent 4 kt de nord/nord-ouest, variant entre nord-ouest et est/nord-est
Température 2°C
Humidité 93%
Pression 1006 hPa
Visibilité 10 km ou plus
pas de nuages en-dessous de 1500 mètres et pas de cumulonimbus.

METAR: LIMC 240220Z 34004KT 320V060 CAVOK 02/01 Q1006 NOSIG

Heure: 04:44 (02:44 UTC)

Prévision

Le bulletin a été fait il y a 3 heures et 44 minutes, à 23:00 UTC
Prévision valable du 24 à 00 UTC au 25 à 06 UTC
Vent 5 kt de direction variable
Visibilité 10 km ou plus
Nuages épars à une hauteur de 6000 ft
Probabilité 40% :
Temporairement
du 24 à 00 UTC au 24 à 06 UTC
Visibilité: 2000 m
bancs de brouillard,

TAF: LIMC 232300Z 2400/2506 VRB05KT 9999 SCT060 PROB40 TEMPO 2400/2406 2000 BCFG

Observations et prévisions météorologiques de plus de 4000 aéroports (messages METAR et TAF).

Les stations disponibles sont représentées par des disques jaunes et rouges sur la carte.

Passer la souris dessus pour voir le nom de la station.

Cliquer dessus pour voir les observations et prévisions météorologiques.

Pour changer de carte: cliquez sur les boutons verts avec une croix noire pour zoomer, sur le bouton vert avec un tiret pour effectuer un zoom arrière, ou sur les flèches vertes pour les cartes adjacentes.


METAR-TAF: